createdAt,value
2023-03-22T00:02:41.857Z,130.63
2023-03-22T00:05:33.551Z,131.43
2023-03-22T00:08:22.890Z,131.13
2023-03-22T00:11:13.524Z,132.75
2023-03-22T00:14:01.623Z,128.27
2023-03-22T00:16:49.596Z,147.02
2023-03-22T00:19:37.792Z,124.35
2023-03-22T00:22:26.131Z,128.30
2023-03-22T00:25:14.076Z,126.22
2023-03-22T00:28:02.078Z,143.10
2023-03-22T00:30:59.768Z,147.95
2023-03-22T00:33:47.780Z,143.68
2023-03-22T00:36:37.916Z,134.38
2023-03-22T00:39:27.061Z,165.52
2023-03-22T00:42:14.969Z,149.00
2023-03-22T00:45:03.141Z,150.75
2023-03-22T00:47:54.248Z,142.45
2023-03-22T00:50:43.116Z,134.07
2023-03-22T00:53:32.977Z,135.00
2023-03-22T00:56:23.009Z,138.32
2023-03-22T00:59:12.789Z,157.27
2023-03-22T01:02:00.854Z,133.18
2023-03-22T01:04:50.196Z,122.45
2023-03-22T01:07:38.507Z,155.95
2023-03-22T01:10:26.848Z,160.50
2023-03-22T01:13:16.970Z,165.23
2023-03-22T01:16:07.480Z,145.80
2023-03-22T01:18:55.558Z,125.38
2023-03-22T01:21:43.716Z,140.75
2023-03-22T01:24:31.973Z,152.10
2023-03-22T01:27:19.830Z,148.50
2023-03-22T01:30:09.731Z,141.85
2023-03-22T01:32:57.768Z,160.25
2023-03-22T01:35:46.181Z,143.18
2023-03-22T01:38:36.412Z,141.63
2023-03-22T01:41:24.223Z,128.65
2023-03-22T01:44:20.716Z,149.23
2023-03-22T01:47:09.184Z,136.10
2023-03-22T01:49:57.257Z,138.68
2023-03-22T01:52:45.552Z,152.23
2023-03-22T01:55:34.844Z,139.52
2023-03-22T01:58:22.795Z,118.32
2023-03-22T02:01:12.225Z,138.45
2023-03-22T02:04:12.293Z,154.43
2023-03-22T02:07:09.889Z,152.38
2023-03-22T02:09:59.347Z,135.55
2023-03-22T02:13:16.421Z,129.77
2023-03-22T02:16:40.820Z,139.52
2023-03-22T02:20:04.823Z,116.40
2023-03-22T02:23:22.083Z,96.15
2023-03-22T02:26:33.157Z,113.75
2023-03-22T02:29:39.551Z,92.88
2023-03-22T02:33:02.303Z,119.22
2023-03-22T02:36:47.249Z,117.53
2023-03-22T02:39:59.716Z,115.10
2023-03-22T02:43:05.928Z,94.35
2023-03-22T02:46:18.520Z,92.07
2023-03-22T02:49:14.498Z,97.65
2023-03-22T02:52:17.974Z,99.40
2023-03-22T02:55:13.495Z,102.20
2023-03-22T02:58:17.401Z,117.07
2023-03-22T03:01:15.302Z,109.55
2023-03-22T03:04:08.422Z,100.90
2023-03-22T03:07:03.933Z,130.93
2023-03-22T03:09:52.213Z,120.55
2023-03-22T03:12:40.441Z,132.57
2023-03-22T03:15:28.613Z,119.38
2023-03-22T03:18:29.755Z,124.95
2023-03-22T03:21:35.025Z,96.35
2023-03-22T03:24:31.287Z,112.38
2023-03-22T03:27:39.821Z,166.10
2023-03-22T03:30:39.148Z,148.60
2023-03-22T03:33:29.565Z,126.50
2023-03-22T03:36:18.768Z,125.05
2023-03-22T03:39:13.136Z,131.20
2023-03-22T03:42:02.949Z,118.75
2023-03-22T03:44:51.214Z,135.88
2023-03-22T03:47:39.916Z,242.27
2023-03-22T03:50:28.632Z,209.07
2023-03-22T03:53:19.726Z,172.50
2023-03-22T03:56:09.221Z,178.63
2023-03-22T03:58:58.806Z,195.80
2023-03-22T04:01:53.130Z,175.65
2023-03-22T04:04:43.707Z,306.55
2023-03-22T04:07:31.946Z,661.30
2023-03-22T04:10:19.877Z,749.38
2023-03-22T04:13:09.419Z,647.40
2023-03-22T04:15:58.129Z,626.13
2023-03-22T04:18:46.357Z,397.55
2023-03-22T04:21:34.191Z,282.38
2023-03-22T04:24:22.544Z,231.30
2023-03-22T04:27:10.624Z,203.25
2023-03-22T04:30:01.134Z,231.27
2023-03-22T04:32:50.221Z,236.18
2023-03-22T04:35:38.473Z,200.32
2023-03-22T04:38:26.526Z,164.07
2023-03-22T04:41:14.419Z,158.05
2023-03-22T04:44:04.846Z,120.07
2023-03-22T04:46:56.012Z,118.43
2023-03-22T04:49:44.916Z,115.00
2023-03-22T04:52:33.063Z,101.38
2023-03-22T04:55:21.044Z,99.63
2023-03-22T04:58:09.154Z,83.10
2023-03-22T05:00:58.547Z,71.90
2023-03-22T05:03:47.530Z,66.95
2023-03-22T05:06:35.597Z,64.88
2023-03-22T05:09:23.749Z,56.67
2023-03-22T05:12:11.734Z,63.72
2023-03-22T05:15:01.091Z,54.42
2023-03-22T05:17:49.129Z,51.67
2023-03-22T05:20:37.680Z,49.00
2023-03-22T05:23:26.384Z,55.30
2023-03-22T05:26:20.401Z,53.20
2023-03-22T05:31:58.485Z,47.45
2023-03-22T05:34:48.442Z,55.88
2023-03-22T05:37:36.405Z,57.25
2023-03-22T05:40:25.016Z,60.70
2023-03-22T05:43:13.470Z,54.17
2023-03-22T05:46:01.400Z,58.88
2023-03-22T05:48:49.294Z,64.15
2023-03-22T05:51:42.717Z,63.75
2023-03-22T05:54:31.562Z,58.75
2023-03-22T05:57:19.700Z,59.05
2023-03-22T06:00:13.470Z,55.38
2023-03-22T06:03:03.830Z,67.72
2023-03-22T06:05:54.995Z,54.20
2023-03-22T06:08:43.198Z,55.22
2023-03-22T06:11:35.394Z,52.28
2023-03-22T06:14:23.429Z,52.72
2023-03-22T06:17:12.212Z,49.20
2023-03-22T06:20:00.340Z,44.95
2023-03-22T06:22:48.284Z,42.88
2023-03-22T06:25:36.437Z,39.90
2023-03-22T06:28:28.839Z,40.83
2023-03-22T06:31:17.338Z,35.15
2023-03-22T06:34:07.164Z,34.45
2023-03-22T06:36:58.253Z,38.97
2023-03-22T06:39:51.143Z,33.15
2023-03-22T06:42:39.207Z,29.52
2023-03-22T06:45:33.868Z,31.60
2023-03-22T06:48:36.960Z,29.45
2023-03-22T06:51:25.272Z,31.65
2023-03-22T06:54:18.555Z,33.40
2023-03-22T06:57:07.208Z,30.63
2023-03-22T06:59:57.655Z,29.77
2023-03-22T07:02:49.616Z,34.47
2023-03-22T07:05:42.197Z,22.70
2023-03-22T07:08:38.625Z,30.42
2023-03-22T07:11:26.792Z,26.75
2023-03-22T07:14:14.872Z,24.45
2023-03-22T07:17:02.794Z,26.70
2023-03-22T07:19:51.305Z,31.20
2023-03-22T07:22:39.757Z,30.45
2023-03-22T07:25:28.055Z,25.75
2023-03-22T07:28:19.257Z,26.30
2023-03-22T07:31:11.694Z,25.55
2023-03-22T07:34:04.440Z,19.70
2023-03-22T07:36:59.171Z,24.35
2023-03-22T07:39:47.696Z,18.98
2023-03-22T07:42:36.154Z,20.65
2023-03-22T07:45:25.632Z,22.92
2023-03-22T07:48:14.338Z,27.60
2023-03-22T07:51:02.967Z,22.63
2023-03-22T07:53:53.320Z,24.17
2023-03-22T07:56:42.767Z,19.83
2023-03-22T07:59:31.482Z,18.02
2023-03-22T08:02:19.673Z,17.98
2023-03-22T08:05:08.574Z,20.88
2023-03-22T08:07:59.550Z,14.02
2023-03-22T08:10:51.896Z,18.88
2023-03-22T08:13:43.478Z,14.13
2023-03-22T08:16:34.347Z,13.48
2023-03-22T08:19:23.558Z,15.82
2023-03-22T08:22:14.621Z,17.30
2023-03-22T08:25:04.633Z,18.23
2023-03-22T08:27:52.776Z,18.08
2023-03-22T08:30:44.893Z,13.50
2023-03-22T08:33:33.888Z,13.13
2023-03-22T08:36:23.014Z,14.38
2023-03-22T08:39:10.868Z,14.55
2023-03-22T08:42:00.682Z,14.80
2023-03-22T08:44:49.417Z,12.75
2023-03-22T08:47:37.401Z,10.25
2023-03-22T08:50:26.180Z,12.25
2023-03-22T08:53:14.251Z,14.57
2023-03-22T08:56:02.444Z,11.05
2023-03-22T08:58:55.287Z,11.82
2023-03-22T09:01:46.038Z,11.35
2023-03-22T09:04:34.398Z,13.98
2023-03-22T09:07:25.551Z,9.82
2023-03-22T09:10:14.011Z,10.93
2023-03-22T09:13:05.200Z,9.00
2023-03-22T09:15:53.575Z,15.40
2023-03-22T09:18:42.027Z,12.07
2023-03-22T09:21:32.303Z,10.60
2023-03-22T09:24:21.248Z,13.88
2023-03-22T09:27:09.395Z,21.42
2023-03-22T09:30:00.312Z,11.40
2023-03-22T09:32:48.554Z,10.07
2023-03-22T09:35:42.042Z,10.20
2023-03-22T09:38:32.739Z,8.85
2023-03-22T09:41:42.686Z,7.88
2023-03-22T09:44:38.300Z,8.98
2023-03-22T09:47:45.291Z,9.85
2023-03-22T09:50:36.998Z,11.60
2023-03-22T09:53:28.415Z,8.45
2023-03-22T09:56:26.807Z,16.63
2023-03-22T10:00:14.497Z,8.57
2023-03-22T10:03:40.680Z,6.78
2023-03-22T10:06:30.857Z,8.10
2023-03-22T10:09:54.371Z,6.68
2023-03-22T10:13:06.685Z,6.22
2023-03-22T10:15:59.289Z,6.13
2023-03-22T10:18:51.945Z,7.57
2023-03-22T10:21:40.565Z,6.65
2023-03-22T10:24:39.147Z,2.83
2023-03-22T10:27:32.287Z,9.50
2023-03-22T10:30:26.838Z,5.13
2023-03-22T10:33:24.110Z,4.65
2023-03-22T10:36:15.138Z,5.88
2023-03-22T10:39:26.238Z,6.85
2023-03-22T10:42:19.732Z,5.40
2023-03-22T10:45:15.616Z,11.70
2023-03-22T10:48:30.121Z,6.05
2023-03-22T10:51:31.457Z,7.22
2023-03-22T10:54:21.741Z,5.05
2023-03-22T10:57:09.590Z,4.00
2023-03-22T10:59:58.506Z,4.13
2023-03-22T11:02:58.853Z,3.92
2023-03-22T11:09:44.279Z,3.53
2023-03-22T11:12:32.649Z,4.07
2023-03-22T11:15:50.233Z,3.80
2023-03-22T11:18:45.351Z,3.47
2023-03-22T11:21:34.112Z,3.95
2023-03-22T11:24:28.397Z,3.60
2023-03-22T11:27:29.687Z,5.50
2023-03-22T11:30:29.184Z,2.35
2023-03-22T11:33:22.504Z,3.15
2023-03-22T11:36:19.710Z,4.03
2023-03-22T11:39:15.135Z,5.40
2023-03-22T11:42:06.893Z,4.18
2023-03-22T11:44:57.199Z,5.13
2023-03-22T11:47:45.744Z,3.35
2023-03-22T11:50:39.333Z,3.65
2023-03-22T11:53:28.873Z,3.22
2023-03-22T11:56:22.857Z,2.03
2023-03-22T11:59:30.491Z,3.50
2023-03-22T12:02:33.499Z,2.67
2023-03-22T12:05:29.802Z,2.28
2023-03-22T12:08:38.462Z,3.00
2023-03-22T12:11:50.563Z,4.57
2023-03-22T12:15:00.913Z,3.08
2023-03-22T12:18:08.320Z,2.35
2023-03-22T12:21:01.689Z,4.32
2023-03-22T12:23:50.307Z,2.25
2023-03-22T12:26:45.204Z,3.10
2023-03-22T12:29:37.407Z,2.55
2023-03-22T12:32:50.651Z,6.38
2023-03-22T12:35:45.612Z,2.85
2023-03-22T12:38:57.228Z,6.63
2023-03-22T12:41:49.766Z,3.05
2023-03-22T12:44:58.949Z,2.35
2023-03-22T12:48:22.338Z,2.13
2023-03-22T12:51:14.656Z,1.60
2023-03-22T12:54:03.748Z,2.08
2023-03-22T12:56:57.448Z,3.78
2023-03-22T13:00:00.981Z,3.20
2023-03-22T13:03:18.739Z,1.77
2023-03-22T13:06:34.359Z,2.08
2023-03-22T13:09:29.936Z,4.28
2023-03-22T13:12:18.717Z,2.10
2023-03-22T13:15:41.811Z,3.10
2023-03-22T13:18:40.224Z,1.80
2023-03-22T13:21:31.441Z,1.75
2023-03-22T13:24:33.022Z,2.30
2023-03-22T13:27:22.160Z,2.65
2023-03-22T13:30:26.041Z,1.77
2023-03-22T13:33:32.842Z,2.08
2023-03-22T13:36:26.049Z,3.25
2023-03-22T13:39:17.742Z,2.35
2023-03-22T13:42:35.015Z,2.83
2023-03-22T13:45:38.308Z,4.03
2023-03-22T13:48:48.502Z,2.60
2023-03-22T13:51:37.908Z,2.17
2023-03-22T13:54:38.799Z,2.60
2023-03-22T13:57:59.384Z,1.83
2023-03-22T14:00:58.759Z,4.07
2023-03-22T14:03:50.510Z,1.60
2023-03-22T14:06:57.305Z,3.00
2023-03-22T14:10:03.041Z,1.92
2023-03-22T14:13:19.290Z,1.50
2023-03-22T14:16:36.515Z,3.08
2023-03-22T14:19:31.861Z,2.13
